sensor_id;sensor_type;location;lat;lon;timestamp;pressure;altitude;pressure_sealevel;temperature;humidity
69780;BME280;57052;55.602;38.096;2024-03-08T00:02:00;100449.25;;;-0.50;52.37
69780;BME280;57052;55.602;38.096;2024-03-08T00:04:26;100445.97;;;-0.52;52.42
69780;BME280;57052;55.602;38.096;2024-03-08T00:06:52;100439.41;;;-0.56;52.46
69780;BME280;57052;55.602;38.096;2024-03-08T00:09:18;100415.38;;;-0.69;52.99
69780;BME280;57052;55.602;38.096;2024-03-08T00:11:44;100432.00;;;-0.60;52.54
69780;BME280;57052;55.602;38.096;2024-03-08T00:14:10;100418.06;;;-0.63;52.65
69780;BME280;57052;55.602;38.096;2024-03-08T00:16:35;100424.41;;;-0.63;52.52
69780;BME280;57052;55.602;38.096;2024-03-08T00:19:02;100422.75;;;-0.65;52.82
69780;BME280;57052;55.602;38.096;2024-03-08T00:21:28;100412.09;;;-0.71;52.61
69780;BME280;57052;55.602;38.096;2024-03-08T00:23:53;100412.69;;;-0.69;52.76
69780;BME280;57052;55.602;38.096;2024-03-08T00:26:20;100410.88;;;-0.69;52.88
69780;BME280;57052;55.602;38.096;2024-03-08T00:28:48;100408.38;;;-0.70;52.81
69780;BME280;57052;55.602;38.096;2024-03-08T00:31:14;100399.63;;;-0.71;52.63
69780;BME280;57052;55.602;38.096;2024-03-08T00:33:42;100375.75;;;-0.85;52.85
69780;BME280;57052;55.602;38.096;2024-03-08T00:36:08;100395.50;;;-0.73;53.38
69780;BME280;57052;55.602;38.096;2024-03-08T00:38:34;100390.75;;;-0.78;53.29
69780;BME280;57052;55.602;38.096;2024-03-08T00:41:00;100392.03;;;-0.74;53.31
69780;BME280;57052;55.602;38.096;2024-03-08T00:43:26;100393.84;;;-0.74;53.14
69780;BME280;57052;55.602;38.096;2024-03-08T00:45:51;100386.72;;;-0.74;53.15
69780;BME280;57052;55.602;38.096;2024-03-08T00:48:17;100381.56;;;-0.75;53.45
69780;BME280;57052;55.602;38.096;2024-03-08T00:50:43;100362.69;;;-0.87;53.34
69780;BME280;57052;55.602;38.096;2024-03-08T00:53:11;100372.81;;;-0.76;53.09
69780;BME280;57052;55.602;38.096;2024-03-08T00:55:38;100370.03;;;-0.89;53.43
69780;BME280;57052;55.602;38.096;2024-03-08T00:58:06;100367.56;;;-0.90;53.81
69780;BME280;57052;55.602;38.096;2024-03-08T01:00:33;100367.72;;;-0.98;53.65
69780;BME280;57052;55.602;38.096;2024-03-08T01:02:59;100360.13;;;-1.01;53.48
69780;BME280;57052;55.602;38.096;2024-03-08T01:05:25;100355.81;;;-1.02;53.69
69780;BME280;57052;55.602;38.096;2024-03-08T01:07:51;100359.13;;;-1.00;53.95
69780;BME280;57052;55.602;38.096;2024-03-08T01:10:16;100353.41;;;-0.97;53.95
69780;BME280;57052;55.602;38.096;2024-03-08T01:12:44;100354.06;;;-0.95;54.18
69780;BME280;57052;55.602;38.096;2024-03-08T01:15:10;100344.22;;;-0.95;53.70
69780;BME280;57052;55.602;38.096;2024-03-08T01:17:36;100354.28;;;-0.90;54.06
69780;BME280;57052;55.602;38.096;2024-03-08T01:20:03;100353.25;;;-0.89;54.51
69780;BME280;57052;55.602;38.096;2024-03-08T01:22:30;100352.44;;;-0.90;54.40
69780;BME280;57052;55.602;38.096;2024-03-08T01:24:56;100343.81;;;-0.98;54.30
69780;BME280;57052;55.602;38.096;2024-03-08T01:27:22;100345.63;;;-0.99;54.13
69780;BME280;57052;55.602;38.096;2024-03-08T01:29:48;100344.19;;;-1.01;54.28
69780;BME280;57052;55.602;38.096;2024-03-08T01:32:14;100328.75;;;-1.12;54.73
69780;BME280;57052;55.602;38.096;2024-03-08T01:34:40;100337.16;;;-1.09;54.76
69780;BME280;57052;55.602;38.096;2024-03-08T01:37:06;100339.63;;;-1.07;54.78
69780;BME280;57052;55.602;38.096;2024-03-08T01:39:32;100338.81;;;-1.08;55.06
69780;BME280;57052;55.602;38.096;2024-03-08T01:41:58;100334.50;;;-1.09;54.61
69780;BME280;57052;55.602;38.096;2024-03-08T01:44:24;100338.16;;;-1.10;54.91
69780;BME280;57052;55.602;38.096;2024-03-08T01:46:51;100338.38;;;-1.11;54.78
69780;BME280;57052;55.602;38.096;2024-03-08T01:49:20;100332.06;;;-1.10;54.83
69780;BME280;57052;55.602;38.096;2024-03-08T01:51:48;100336.34;;;-1.09;55.06
69780;BME280;57052;55.602;38.096;2024-03-08T01:54:15;100339.81;;;-1.09;54.90
69780;BME280;57052;55.602;38.096;2024-03-08T01:56:42;100344.13;;;-1.08;55.01
69780;BME280;57052;55.602;38.096;2024-03-08T01:59:08;100348.00;;;-1.10;54.65
69780;BME280;57052;55.602;38.096;2024-03-08T02:01:34;100317.47;;;-1.21;54.92
69780;BME280;57052;55.602;38.096;2024-03-08T02:04:00;100337.25;;;-1.23;55.22
69780;BME280;57052;55.602;38.096;2024-03-08T02:06:26;100329.28;;;-1.23;55.14
69780;BME280;57052;55.602;38.096;2024-03-08T02:08:51;100333.97;;;-1.25;55.38
69780;BME280;57052;55.602;38.096;2024-03-08T02:11:18;100323.34;;;-1.25;55.56
69780;BME280;57052;55.602;38.096;2024-03-08T02:13:46;100317.38;;;-1.27;54.96
69780;BME280;57052;55.602;38.096;2024-03-08T02:16:20;100312.47;;;-1.31;56.12
69780;BME280;57052;55.602;38.096;2024-03-08T02:18:46;100300.56;;;-1.35;55.67
69780;BME280;57052;55.602;38.096;2024-03-08T02:21:12;100293.19;;;-1.39;55.45
69780;BME280;57052;55.602;38.096;2024-03-08T02:23:39;100301.03;;;-1.31;54.86
69780;BME280;57052;55.602;38.096;2024-03-08T02:26:05;100296.09;;;-1.34;55.23
69780;BME280;57052;55.602;38.096;2024-03-08T02:28:33;100285.44;;;-1.41;55.28
69780;BME280;57052;55.602;38.096;2024-03-08T02:30:59;100299.94;;;-1.37;55.61
69780;BME280;57052;55.602;38.096;2024-03-08T02:33:27;100294.38;;;-1.42;55.70
69780;BME280;57052;55.602;38.096;2024-03-08T02:35:54;100293.75;;;-1.44;55.05
69780;BME280;57052;55.602;38.096;2024-03-08T02:38:22;100293.94;;;-1.45;55.36
69780;BME280;57052;55.602;38.096;2024-03-08T02:40:51;100292.31;;;-1.46;55.35
69780;BME280;57052;55.602;38.096;2024-03-08T02:43:18;100289.84;;;-1.48;55.12
69780;BME280;57052;55.602;38.096;2024-03-08T02:45:44;100290.88;;;-1.49;55.39
69780;BME280;57052;55.602;38.096;2024-03-08T02:48:12;100281.25;;;-1.50;55.69
69780;BME280;57052;55.602;38.096;2024-03-08T02:50:38;100278.78;;;-1.51;55.46
69780;BME280;57052;55.602;38.096;2024-03-08T02:53:11;100278.78;;;-1.51;55.85
69780;BME280;57052;55.602;38.096;2024-03-08T02:55:40;100284.47;;;-1.54;56.39
69780;BME280;57052;55.602;38.096;2024-03-08T02:58:08;100281.00;;;-1.55;55.72
69780;BME280;57052;55.602;38.096;2024-03-08T03:00:38;100274.06;;;-1.56;55.44
69780;BME280;57052;55.602;38.096;2024-03-08T03:03:05;100270.56;;;-1.56;56.07
69780;BME280;57052;55.602;38.096;2024-03-08T03:05:32;100258.88;;;-1.62;56.35
69780;BME280;57052;55.602;38.096;2024-03-08T03:07:57;100268.56;;;-1.54;55.61
69780;BME280;57052;55.602;38.096;2024-03-08T03:10:24;100262.25;;;-1.53;55.51
69780;BME280;57052;55.602;38.096;2024-03-08T03:12:50;100261.78;;;-1.57;55.80
69780;BME280;57052;55.602;38.096;2024-03-08T03:15:16;100248.03;;;-1.67;55.75
69780;BME280;57052;55.602;38.096;2024-03-08T03:17:49;100250.53;;;-1.59;56.84
69780;BME280;57052;55.602;38.096;2024-03-08T03:20:19;100248.53;;;-1.57;56.14
69780;BME280;57052;55.602;38.096;2024-03-08T03:22:58;100247.69;;;-1.57;56.02
69780;BME280;57052;55.602;38.096;2024-03-08T03:25:27;100249.53;;;-1.58;55.56
69780;BME280;57052;55.602;38.096;2024-03-08T03:27:59;100228.38;;;-1.72;56.38
69780;BME280;57052;55.602;38.096;2024-03-08T03:30:25;100244.16;;;-1.64;56.39
69780;BME280;57052;55.602;38.096;2024-03-08T03:32:53;100242.50;;;-1.65;55.62
69780;BME280;57052;55.602;38.096;2024-03-08T03:35:21;100240.31;;;-1.62;56.17
69780;BME280;57052;55.602;38.096;2024-03-08T03:37:48;100247.19;;;-1.67;56.06
69780;BME280;57052;55.602;38.096;2024-03-08T03:40:38;100237.16;;;-1.72;56.12
69780;BME280;57052;55.602;38.096;2024-03-08T03:43:04;100233.50;;;-1.71;56.25
69780;BME280;57052;55.602;38.096;2024-03-08T03:45:30;100233.66;;;-1.72;56.15
69780;BME280;57052;55.602;38.096;2024-03-08T03:48:05;100221.44;;;-1.73;56.70
69780;BME280;57052;55.602;38.096;2024-03-08T03:50:32;100213.03;;;-1.77;56.26
69780;BME280;57052;55.602;38.096;2024-03-08T03:53:01;100201.66;;;-1.92;55.94
69780;BME280;57052;55.602;38.096;2024-03-08T03:55:28;100209.13;;;-1.81;56.15
69780;BME280;57052;55.602;38.096;2024-03-08T03:57:54;100214.84;;;-1.77;55.93
69780;BME280;57052;55.602;38.096;2024-03-08T04:00:20;100216.25;;;-1.81;56.80
69780;BME280;57052;55.602;38.096;2024-03-08T04:02:46;100208.50;;;-1.83;56.48
69780;BME280;57052;55.602;38.096;2024-03-08T04:05:15;100210.63;;;-1.72;56.51
69780;BME280;57052;55.602;38.096;2024-03-08T04:07:41;100213.72;;;-1.68;55.98
69780;BME280;57052;55.602;38.096;2024-03-08T04:10:08;100213.78;;;-1.62;56.28
69780;BME280;57052;55.602;38.096;2024-03-08T04:12:35;100203.41;;;-1.57;56.40
69780;BME280;57052;55.602;38.096;2024-03-08T04:15:01;100203.84;;;-1.53;56.29
69780;BME280;57052;55.602;38.096;2024-03-08T04:17:30;100202.25;;;-1.48;56.00
69780;BME280;57052;55.602;38.096;2024-03-08T04:19:56;100199.22;;;-1.45;56.13
69780;BME280;57052;55.602;38.096;2024-03-08T04:22:22;100199.03;;;-1.43;56.11
69780;BME280;57052;55.602;38.096;2024-03-08T04:24:48;100205.78;;;-1.41;55.62
69780;BME280;57052;55.602;38.096;2024-03-08T04:27:14;100184.50;;;-1.47;55.98
69780;BME280;57052;55.602;38.096;2024-03-08T04:29:42;100199.59;;;-1.48;55.84
69780;BME280;57052;55.602;38.096;2024-03-08T04:32:08;100181.16;;;-1.56;56.26
69780;BME280;57052;55.602;38.096;2024-03-08T04:34:35;100202.47;;;-1.43;56.32
69780;BME280;57052;55.602;38.096;2024-03-08T04:37:01;100197.59;;;-1.46;55.94
69780;BME280;57052;55.602;38.096;2024-03-08T04:39:27;100203.69;;;-1.45;56.01
69780;BME280;57052;55.602;38.096;2024-03-08T04:41:55;100198.78;;;-1.48;56.48
69780;BME280;57052;55.602;38.096;2024-03-08T04:44:23;100202.88;;;-1.46;55.92
69780;BME280;57052;55.602;38.096;2024-03-08T04:46:50;100203.31;;;-1.42;56.52
69780;BME280;57052;55.602;38.096;2024-03-08T04:49:16;100188.78;;;-1.46;56.03
69780;BME280;57052;55.602;38.096;2024-03-08T04:51:42;100188.34;;;-1.50;56.83
69780;BME280;57052;55.602;38.096;2024-03-08T04:54:08;100186.06;;;-1.53;56.73
69780;BME280;57052;55.602;38.096;2024-03-08T04:56:33;100195.34;;;-1.42;56.70
69780;BME280;57052;55.602;38.096;2024-03-08T04:58:59;100190.41;;;-1.45;56.72
69780;BME280;57052;55.602;38.096;2024-03-08T05:01:25;100192.06;;;-1.44;56.58
69780;BME280;57052;55.602;38.096;2024-03-08T05:03:51;100186.91;;;-1.52;57.13
69780;BME280;57052;55.602;38.096;2024-03-08T05:06:20;100196.94;;;-1.48;57.19
69780;BME280;57052;55.602;38.096;2024-03-08T05:08:46;100200.41;;;-1.47;57.26
69780;BME280;57052;55.602;38.096;2024-03-08T05:11:12;100198.97;;;-1.50;57.39
69780;BME280;57052;55.602;38.096;2024-03-08T05:13:40;100192.59;;;-1.55;58.04
69780;BME280;57052;55.602;38.096;2024-03-08T05:16:06;100182.63;;;-1.53;57.71
69780;BME280;57052;55.602;38.096;2024-03-08T05:18:33;100187.34;;;-1.49;57.51
69780;BME280;57052;55.602;38.096;2024-03-08T05:21:00;100190.00;;;-1.49;58.12
69780;BME280;57052;55.602;38.096;2024-03-08T05:23:26;100176.53;;;-1.47;57.96
69780;BME280;57052;55.602;38.096;2024-03-08T05:25:51;100182.03;;;-1.49;57.82
69780;BME280;57052;55.602;38.096;2024-03-08T05:28:17;100177.72;;;-1.50;57.91
69780;BME280;57052;55.602;38.096;2024-03-08T05:30:43;100178.94;;;-1.52;58.46
69780;BME280;57052;55.602;38.096;2024-03-08T05:33:08;100174.91;;;-1.48;58.07
69780;BME280;57052;55.602;38.096;2024-03-08T05:35:36;100168.53;;;-1.54;58.24
69780;BME280;57052;55.602;38.096;2024-03-08T05:38:02;100157.28;;;-1.56;58.56
69780;BME280;57052;55.602;38.096;2024-03-08T05:40:28;100181.09;;;-1.35;58.26
69780;BME280;57052;55.602;38.096;2024-03-08T05:42:58;100175.41;;;-1.32;58.38
69780;BME280;57052;55.602;38.096;2024-03-08T05:45:25;100177.47;;;-1.27;58.38
69780;BME280;57052;55.602;38.096;2024-03-08T05:47:51;100164.03;;;-1.25;58.54
69780;BME280;57052;55.602;38.096;2024-03-08T05:50:19;100172.66;;;-1.17;58.03
69780;BME280;57052;55.602;38.096;2024-03-08T05:52:45;100178.19;;;-1.12;58.00
69780;BME280;57052;55.602;38.096;2024-03-08T05:55:13;100176.97;;;-1.09;58.29
69780;BME280;57052;55.602;38.096;2024-03-08T05:57:41;100147.91;;;-1.17;57.93
69780;BME280;57052;55.602;38.096;2024-03-08T06:00:09;100178.63;;;-1.08;58.46
69780;BME280;57052;55.602;38.096;2024-03-08T06:02:38;100172.88;;;-1.12;58.78
69780;BME280;57052;55.602;38.096;2024-03-08T06:05:09;100168.31;;;-1.24;59.61
69780;BME280;57052;55.602;38.096;2024-03-08T06:07:35;100179.41;;;-1.14;58.67
69780;BME280;57052;55.602;38.096;2024-03-08T06:10:00;100173.50;;;-1.10;59.07
69780;BME280;57052;55.602;38.096;2024-03-08T06:12:26;100168.25;;;-1.03;58.68
69780;BME280;57052;55.602;38.096;2024-03-08T06:14:54;100170.91;;;-1.03;59.09
69780;BME280;57052;55.602;38.096;2024-03-08T06:17:20;100154.28;;;-1.12;59.14
69780;BME280;57052;55.602;38.096;2024-03-08T06:19:51;100158.63;;;-1.04;58.93
69780;BME280;57052;55.602;38.096;2024-03-08T06:22:17;100169.31;;;-0.91;58.86
69780;BME280;57052;55.602;38.096;2024-03-08T06:24:45;100175.09;;;-0.81;58.89
69780;BME280;57052;55.602;38.096;2024-03-08T06:27:11;100168.13;;;-0.82;58.51
69780;BME280;57052;55.602;38.096;2024-03-08T06:29:36;100167.13;;;-0.75;58.69
69780;BME280;57052;55.602;38.096;2024-03-08T06:32:02;100171.47;;;-0.67;58.72
69780;BME280;57052;55.602;38.096;2024-03-08T06:34:28;100168.03;;;-0.61;58.63
69780;BME280;57052;55.602;38.096;2024-03-08T06:36:54;100166.22;;;-0.54;58.81
69780;BME280;57052;55.602;38.096;2024-03-08T06:39:26;100165.38;;;-0.61;58.67
69780;BME280;57052;55.602;38.096;2024-03-08T06:42:11;100167.25;;;-0.48;59.83
69780;BME280;57052;55.602;38.096;2024-03-08T06:44:38;100156.34;;;-0.60;58.54
69780;BME280;57052;55.602;38.096;2024-03-08T06:47:10;100163.69;;;-0.69;61.38
69780;BME280;57052;55.602;38.096;2024-03-08T06:49:36;100161.66;;;-0.60;58.63
69780;BME280;57052;55.602;38.096;2024-03-08T06:52:02;100169.25;;;-0.57;58.76
69780;BME280;57052;55.602;38.096;2024-03-08T06:54:29;100161.72;;;-0.53;58.45
69780;BME280;57052;55.602;38.096;2024-03-08T06:56:55;100166.00;;;-0.59;58.90
69780;BME280;57052;55.602;38.096;2024-03-08T06:59:20;100159.88;;;-0.53;58.56
69780;BME280;57052;55.602;38.096;2024-03-08T07:01:47;100162.34;;;-0.45;58.72
69780;BME280;57052;55.602;38.096;2024-03-08T07:04:13;100164.44;;;-0.40;57.98
69780;BME280;57052;55.602;38.096;2024-03-08T07:06:39;100168.53;;;-0.31;58.19
69780;BME280;57052;55.602;38.096;2024-03-08T07:09:06;100163.63;;;-0.28;58.06
69780;BME280;57052;55.602;38.096;2024-03-08T07:11:32;100165.25;;;-0.27;57.82
69780;BME280;57052;55.602;38.096;2024-03-08T07:13:57;100161.81;;;-0.21;57.88
69780;BME280;57052;55.602;38.096;2024-03-08T07:16:23;100170.19;;;-0.17;57.83
69780;BME280;57052;55.602;38.096;2024-03-08T07:18:49;100161.81;;;-0.14;57.93
69780;BME280;57052;55.602;38.096;2024-03-08T07:21:17;100165.13;;;-0.06;57.81
69780;BME280;57052;55.602;38.096;2024-03-08T07:23:44;100154.88;;;-0.09;57.50
69780;BME280;57052;55.602;38.096;2024-03-08T07:26:23;100160.59;;;-0.12;57.82
69780;BME280;57052;55.602;38.096;2024-03-08T07:28:49;100166.94;;;-0.06;57.61
69780;BME280;57052;55.602;38.096;2024-03-08T07:31:14;100166.97;;;0.07;57.50
69780;BME280;57052;55.602;38.096;2024-03-08T07:33:40;100150.38;;;0.12;57.59
69780;BME280;57052;55.602;38.096;2024-03-08T07:36:06;100158.75;;;0.15;57.62
69780;BME280;57052;55.602;38.096;2024-03-08T07:38:32;100155.09;;;0.29;57.27
69780;BME280;57052;55.602;38.096;2024-03-08T07:40:57;100159.63;;;0.42;57.00
69780;BME280;57052;55.602;38.096;2024-03-08T07:43:24;100151.22;;;0.32;57.10
69780;BME280;57052;55.602;38.096;2024-03-08T07:45:49;100133.78;;;0.36;57.06
69780;BME280;57052;55.602;38.096;2024-03-08T07:48:16;100135.03;;;0.46;56.95
69780;BME280;57052;55.602;38.096;2024-03-08T07:50:43;100129.69;;;0.53;56.85
69780;BME280;57052;55.602;38.096;2024-03-08T07:53:09;100131.72;;;0.64;56.73
69780;BME280;57052;55.602;38.096;2024-03-08T07:55:36;100142.78;;;0.68;56.63
69780;BME280;57052;55.602;38.096;2024-03-08T07:58:02;100123.31;;;0.60;56.61
69780;BME280;57052;55.602;38.096;2024-03-08T08:00:29;100134.59;;;0.56;56.84
69780;BME280;57052;55.602;38.096;2024-03-08T08:02:56;100132.34;;;0.73;56.60
69780;BME280;57052;55.602;38.096;2024-03-08T08:05:22;100135.38;;;0.83;56.60
69780;BME280;57052;55.602;38.096;2024-03-08T08:07:48;100149.50;;;0.90;56.46
69780;BME280;57052;55.602;38.096;2024-03-08T08:10:15;100141.28;;;0.91;56.26
69780;BME280;57052;55.602;38.096;2024-03-08T08:12:50;100139.25;;;0.87;56.67
69780;BME280;57052;55.602;38.096;2024-03-08T08:15:20;100124.69;;;0.89;56.37
69780;BME280;57052;55.602;38.096;2024-03-08T08:17:46;100138.78;;;1.09;56.53
69780;BME280;57052;55.602;38.096;2024-03-08T08:20:13;100128.50;;;1.19;55.96
69780;BME280;57052;55.602;38.096;2024-03-08T08:22:57;100129.28;;;1.26;56.17
69780;BME280;57052;55.602;38.096;2024-03-08T08:25:24;100123.13;;;1.33;56.07
69780;BME280;57052;55.602;38.096;2024-03-08T08:27:50;100122.06;;;1.34;55.77
69780;BME280;57052;55.602;38.096;2024-03-08T08:30:16;100131.00;;;1.52;55.87
69780;BME280;57052;55.602;38.096;2024-03-08T08:32:41;100140.56;;;1.66;55.63
69780;BME280;57052;55.602;38.096;2024-03-08T08:35:08;100133.50;;;1.78;55.38
69780;BME280;57052;55.602;38.096;2024-03-08T08:37:35;100139.19;;;1.88;55.68
69780;BME280;57052;55.602;38.096;2024-03-08T08:40:04;100107.88;;;1.77;55.22
69780;BME280;57052;55.602;38.096;2024-03-08T08:42:40;100102.72;;;1.82;55.64
69780;BME280;57052;55.602;38.096;2024-03-08T08:45:07;100121.50;;;1.94;55.30
69780;BME280;57052;55.602;38.096;2024-03-08T08:47:36;100113.97;;;1.84;55.40
69780;BME280;57052;55.602;38.096;2024-03-08T08:50:03;100131.78;;;1.90;54.97
69780;BME280;57052;55.602;38.096;2024-03-08T08:52:32;100131.09;;;2.02;54.99
69780;BME280;57052;55.602;38.096;2024-03-08T08:54:58;100128.84;;;2.05;54.86
69780;BME280;57052;55.602;38.096;2024-03-08T08:57:24;100138.59;;;2.18;55.22
69780;BME280;57052;55.602;38.096;2024-03-08T08:59:50;100123.38;;;2.18;54.38
69780;BME280;57052;55.602;38.096;2024-03-08T09:02:16;100126.19;;;2.23;54.21
69780;BME280;57052;55.602;38.096;2024-03-08T09:04:42;100126.00;;;2.25;54.49
69780;BME280;57052;55.602;38.096;2024-03-08T09:07:11;100124.91;;;2.32;55.26
69780;BME280;57052;55.602;38.096;2024-03-08T09:09:39;100123.28;;;2.31;55.21
69780;BME280;57052;55.602;38.096;2024-03-08T09:12:05;100121.81;;;2.35;55.02
69780;BME280;57052;55.602;38.096;2024-03-08T09:14:30;100116.66;;;2.34;54.29
69780;BME280;57052;55.602;38.096;2024-03-08T09:16:56;100113.28;;;2.45;54.57
69780;BME280;57052;55.602;38.096;2024-03-08T09:19:22;100117.38;;;2.47;54.98
69780;BME280;57052;55.602;38.096;2024-03-08T09:21:50;100111.88;;;2.42;54.93
69780;BME280;57052;55.602;38.096;2024-03-08T09:24:16;100116.91;;;2.32;55.10
69780;BME280;57052;55.602;38.096;2024-03-08T09:26:42;100110.50;;;2.33;54.47
69780;BME280;57052;55.602;38.096;2024-03-08T09:29:08;100117.88;;;2.38;54.33
69780;BME280;57052;55.602;38.096;2024-03-08T09:31:36;100082.22;;;2.26;54.91
69780;BME280;57052;55.602;38.096;2024-03-08T09:34:03;100103.78;;;2.49;54.61
69780;BME280;57052;55.602;38.096;2024-03-08T09:36:29;100104.09;;;2.59;54.14
69780;BME280;57052;55.602;38.096;2024-03-08T09:38:58;100084.88;;;2.50;54.51
69780;BME280;57052;55.602;38.096;2024-03-08T09:41:23;100102.09;;;2.54;54.86
69780;BME280;57052;55.602;38.096;2024-03-08T09:43:50;100094.16;;;2.66;54.53
69780;BME280;57052;55.602;38.096;2024-03-08T09:46:18;100092.78;;;2.82;54.83
69780;BME280;57052;55.602;38.096;2024-03-08T09:48:45;100095.22;;;2.83;54.49
69780;BME280;57052;55.602;38.096;2024-03-08T09:51:12;100104.19;;;2.89;54.58
69780;BME280;57052;55.602;38.096;2024-03-08T09:53:41;100104.06;;;3.02;54.52
69780;BME280;57052;55.602;38.096;2024-03-08T09:56:08;100099.81;;;3.12;54.30
69780;BME280;57052;55.602;38.096;2024-03-08T09:58:33;100081.09;;;3.12;53.37
69780;BME280;57052;55.602;38.096;2024-03-08T10:00:59;100094.53;;;3.24;53.32
69780;BME280;57052;55.602;38.096;2024-03-08T10:03:30;100099.44;;;3.27;53.94
69780;BME280;57052;55.602;38.096;2024-03-08T10:05:57;100093.41;;;3.32;53.27
69780;BME280;57052;55.602;38.096;2024-03-08T10:08:33;100097.72;;;3.33;53.73
69780;BME280;57052;55.602;38.096;2024-03-08T10:11:01;100083.97;;;3.29;53.76
69780;BME280;57052;55.602;38.096;2024-03-08T10:13:27;100085.78;;;3.47;54.11
69780;BME280;57052;55.602;38.096;2024-03-08T10:15:54;100086.47;;;3.42;53.17
69780;BME280;57052;55.602;38.096;2024-03-08T10:18:20;100085.22;;;3.45;53.34
69780;BME280;57052;55.602;38.096;2024-03-08T10:21:07;100086.81;;;3.46;53.22
69780;BME280;57052;55.602;38.096;2024-03-08T10:23:53;100080.31;;;3.42;53.80
69780;BME280;57052;55.602;38.096;2024-03-08T10:26:19;100075.06;;;3.35;53.89
69780;BME280;57052;55.602;38.096;2024-03-08T10:28:51;100079.31;;;3.54;54.21
69780;BME280;57052;55.602;38.096;2024-03-08T10:31:20;100078.28;;;3.55;53.14
69780;BME280;57052;55.602;38.096;2024-03-08T10:33:46;100072.06;;;3.43;53.98
69780;BME280;57052;55.602;38.096;2024-03-08T10:36:15;100081.09;;;3.31;54.09
69780;BME280;57052;55.602;38.096;2024-03-08T10:38:42;100072.44;;;3.29;53.71
69780;BME280;57052;55.602;38.096;2024-03-08T10:41:12;100072.00;;;3.32;54.27
69780;BME280;57052;55.602;38.096;2024-03-08T10:44:21;100082.00;;;3.36;54.81
69780;BME280;57052;55.602;38.096;2024-03-08T10:49:38;100084.75;;;3.18;55.17
69780;BME280;57052;55.602;38.096;2024-03-08T10:52:05;100084.38;;;3.14;54.21
69780;BME280;57052;55.602;38.096;2024-03-08T10:54:36;100090.69;;;3.20;54.35
69780;BME280;57052;55.602;38.096;2024-03-08T10:57:06;100069.22;;;3.08;54.38
69780;BME280;57052;55.602;38.096;2024-03-08T10:59:34;100077.44;;;3.25;54.20
69780;BME280;57052;55.602;38.096;2024-03-08T11:02:00;100078.63;;;3.29;54.61
69780;BME280;57052;55.602;38.096;2024-03-08T11:04:26;100051.41;;;3.02;54.17
69780;BME280;57052;55.602;38.096;2024-03-08T11:07:01;100077.06;;;3.21;55.08
69780;BME280;57052;55.602;38.096;2024-03-08T11:09:36;100081.16;;;3.24;54.13
69780;BME280;57052;55.602;38.096;2024-03-08T11:12:29;100085.63;;;3.30;55.46
69780;BME280;57052;55.602;38.096;2024-03-08T11:15:00;100077.00;;;3.28;54.00
69780;BME280;57052;55.602;38.096;2024-03-08T11:20:18;100067.88;;;3.17;55.26
69780;BME280;57052;55.602;38.096;2024-03-08T11:22:53;100063.94;;;3.20;54.99
69780;BME280;57052;55.602;38.096;2024-03-08T11:25:39;100071.50;;;3.23;55.11
69780;BME280;57052;55.602;38.096;2024-03-08T11:28:17;100073.84;;;3.31;54.63
69780;BME280;57052;55.602;38.096;2024-03-08T11:33:26;100072.84;;;3.44;53.97
69780;BME280;57052;55.602;38.096;2024-03-08T11:36:43;100071.81;;;3.45;54.70
69780;BME280;57052;55.602;38.096;2024-03-08T11:38:44;100074.75;;;3.43;54.70
69780;BME280;57052;55.602;38.096;2024-03-08T11:41:10;100065.22;;;3.47;54.40
69780;BME280;57052;55.602;38.096;2024-03-08T11:43:42;100050.06;;;3.41;54.25
69780;BME280;57052;55.602;38.096;2024-03-08T11:46:09;100058.22;;;3.46;53.98
69780;BME280;57052;55.602;38.096;2024-03-08T11:48:36;100064.28;;;3.53;53.81
69780;BME280;57052;55.602;38.096;2024-03-08T11:51:01;100066.63;;;3.61;54.10
69780;BME280;57052;55.602;38.096;2024-03-08T11:53:28;100055.94;;;3.61;54.01
69780;BME280;57052;55.602;38.096;2024-03-08T11:55:54;100058.41;;;3.63;53.85
69780;BME280;57052;55.602;38.096;2024-03-08T11:58:20;100060.69;;;3.59;54.64
69780;BME280;57052;55.602;38.096;2024-03-08T12:00:45;100067.22;;;3.63;54.32
69780;BME280;57052;55.602;38.096;2024-03-08T12:03:11;100060.00;;;3.64;53.77
69780;BME280;57052;55.602;38.096;2024-03-08T12:05:38;100056.63;;;3.57;53.93
69780;BME280;57052;55.602;38.096;2024-03-08T12:08:04;100066.31;;;3.69;54.37
69780;BME280;57052;55.602;38.096;2024-03-08T12:10:34;100068.41;;;3.67;54.19
69780;BME280;57052;55.602;38.096;2024-03-08T12:15:45;100076.25;;;3.51;54.26
69780;BME280;57052;55.602;38.096;2024-03-08T12:18:11;100065.91;;;3.54;54.11
69780;BME280;57052;55.602;38.096;2024-03-08T12:20:38;100063.97;;;3.61;54.65
69780;BME280;57052;55.602;38.096;2024-03-08T12:23:04;100067.34;;;3.68;54.34
69780;BME280;57052;55.602;38.096;2024-03-08T12:25:33;100067.63;;;3.78;54.41
69780;BME280;57052;55.602;38.096;2024-03-08T12:28:08;100071.94;;;3.79;54.44
69780;BME280;57052;55.602;38.096;2024-03-08T12:30:49;100074.28;;;3.87;54.22
69780;BME280;57052;55.602;38.096;2024-03-08T12:33:17;100071.25;;;3.84;54.39
69780;BME280;57052;55.602;38.096;2024-03-08T12:35:50;100073.91;;;3.72;54.60
69780;BME280;57052;55.602;38.096;2024-03-08T12:38:20;100067.84;;;3.65;54.40
69780;BME280;57052;55.602;38.096;2024-03-08T12:40:50;100069.00;;;3.69;54.78
69780;BME280;57052;55.602;38.096;2024-03-08T12:43:20;100064.47;;;3.81;54.44
69780;BME280;57052;55.602;38.096;2024-03-08T12:45:46;100045.97;;;3.80;54.42
69780;BME280;57052;55.602;38.096;2024-03-08T12:48:15;100060.50;;;3.72;54.35
69780;BME280;57052;55.602;38.096;2024-03-08T12:50:41;100062.38;;;3.72;54.48
69780;BME280;57052;55.602;38.096;2024-03-08T12:53:11;100061.69;;;3.76;54.83
69780;BME280;57052;55.602;38.096;2024-03-08T12:55:36;100061.34;;;3.84;54.64
69780;BME280;57052;55.602;38.096;2024-03-08T12:58:04;100073.22;;;3.88;54.08